Time;durP1;ratioP1;P1;durP2;ratioP2;P2;SDS_P1;SDS_P2;PMS_P1;PMS_P2;Temp;Humidity;BMP_temperature;BMP_pressure;BME280_temperature;BME280_humidity;BME280_pressure;Samples;Min_cycle;Max_cycle;Signal;HPM_P1;HPM_P2
2021/12/26 00:01:31;;;;;;;34.00;9.07;;;;;;;;;;5052055;28;20029;-62
2021/12/26 00:03:57;;;;;;;29.75;10.68;;;;;;;;;;5051890;28;20049;-62
2021/12/26 00:06:28;;;;;;;71.95;13.40;;;;;;;;;;5052187;28;20021;-62
2021/12/26 00:08:56;;;;;;;36.28;9.10;;;;;;;;;;5051422;28;20025;-62
2021/12/26 00:11:23;;;;;;;36.22;9.70;;;;;;;;;;5033983;28;20374;-62
2021/12/26 00:13:50;;;;;;;35.55;8.82;;;;;;;;;;5051774;28;20072;-62
2021/12/26 00:16:17;;;;;;;27.63;8.93;;;;;;;;;;5051638;28;20078;-62
2021/12/26 00:18:46;;;;;;;31.30;8.23;;;;;;;;;;5051532;28;20492;-62
2021/12/26 00:21:13;;;;;;;34.00;9.65;;;;;;;;;;5033596;28;20507;-62
2021/12/26 00:23:39;;;;;;;23.25;8.50;;;;;;;;;;5051461;28;20021;-62
2021/12/26 00:26:05;;;;;;;31.85;7.82;;;;;;;;;;5051460;28;20036;-62
2021/12/26 00:28:31;;;;;;;24.27;9.55;;;;;;;;;;5051764;28;20048;-62
2021/12/26 00:30:58;;;;;;;19.38;7.45;;;;;;;;;;5051469;28;20035;-62
2021/12/26 00:33:25;;;;;;;24.92;8.27;;;;;;;;;;5051587;28;20106;-62
2021/12/26 00:35:51;;;;;;;25.83;10.38;;;;;;;;;;5051492;28;20408;-62
2021/12/26 00:38:18;;;;;;;22.27;8.18;;;;;;;;;;5051011;28;20170;-62
2021/12/26 00:40:44;;;;;;;26.38;8.55;;;;;;;;;;5051643;28;20537;-62
2021/12/26 00:43:10;;;;;;;31.73;8.95;;;;;;;;;;5051341;28;20110;-62
2021/12/26 00:45:37;;;;;;;32.65;8.73;;;;;;;;;;5033437;28;20079;-62
2021/12/26 00:48:03;;;;;;;24.27;8.38;;;;;;;;;;5033405;28;20025;-62
2021/12/26 00:50:31;;;;;;;38.50;9.63;;;;;;;;;;5051594;28;20039;-62
2021/12/26 00:52:58;;;;;;;23.38;7.97;;;;;;;;;;5051108;28;20037;-62
2021/12/26 00:55:25;;;;;;;32.03;9.35;;;;;;;;;;5051495;28;20415;-62
2021/12/26 00:57:52;;;;;;;29.05;8.02;;;;;;;;;;5033376;28;20434;-62
2021/12/26 01:00:20;;;;;;;30.08;9.10;;;;;;;;;;5051181;28;20025;-62
2021/12/26 01:02:46;;;;;;;30.02;9.32;;;;;;;;;;5036431;28;20033;-62
2021/12/26 01:05:12;;;;;;;25.17;8.60;;;;;;;;;;5054805;28;20032;-62
2021/12/26 01:10:06;;;;;;;20.52;7.88;;;;;;;;;;5036833;28;20055;-62
2021/12/26 01:12:33;;;;;;;22.77;8.02;;;;;;;;;;5036698;28;20041;-62
2021/12/26 01:15:04;;;;;;;29.08;8.02;;;;;;;;;;5036879;28;20037;-62
2021/12/26 01:17:35;;;;;;;20.35;7.15;;;;;;;;;;5036520;28;20052;-62
2021/12/26 01:20:36;;;;;;;33.33;7.57;;;;;;;;;;5036225;28;20030;-62
2021/12/26 01:23:03;;;;;;;29.15;7.40;;;;;;;;;;5036566;28;20047;-62
2021/12/26 01:25:29;;;;;;;36.10;7.07;;;;;;;;;;5036418;28;20025;-62
2021/12/26 01:27:55;;;;;;;24.35;7.45;;;;;;;;;;5054423;28;20033;-62
2021/12/26 01:30:25;;;;;;;23.75;7.53;;;;;;;;;;5036017;28;20129;-62
2021/12/26 01:32:54;;;;;;;23.90;6.32;;;;;;;;;;5036402;28;20120;-62
2021/12/26 01:35:29;;;;;;;37.70;8.48;;;;;;;;;;5035887;28;20102;-62
2021/12/26 01:38:07;;;;;;;25.70;7.65;;;;;;;;;;5036060;28;20049;-62
2021/12/26 01:40:53;;;;;;;21.70;7.63;;;;;;;;;;5054505;28;20091;-62
2021/12/26 01:43:57;;;;;;;;;;;;;;;;;;5040193;28;20451;-62
2021/12/26 01:46:36;;;;;;;17.85;6.15;;;;;;;;;;5036226;28;20008;-62
2021/12/26 01:49:07;;;;;;;22.00;5.75;;;;;;;;;;5054134;28;20424;-62
2021/12/26 01:51:34;;;;;;;37.00;8.00;;;;;;;;;;5036212;28;20029;-62
2021/12/26 01:54:06;;;;;;;22.33;7.03;;;;;;;;;;5036194;28;20017;-62
2021/12/26 01:56:33;;;;;;;27.02;7.15;;;;;;;;;;5035895;28;20040;-62
2021/12/26 01:59:00;;;;;;;27.85;7.55;;;;;;;;;;5035927;28;20128;-62
2021/12/26 02:01:58;;;;;;;26.77;7.22;;;;;;;;;;5020190;28;20045;-62
2021/12/26 02:04:28;;;;;;;24.83;6.78;;;;;;;;;;5035442;28;20249;-62
2021/12/26 02:06:58;;;;;;;30.63;7.10;;;;;;;;;;5035687;28;20017;-62
2021/12/26 02:09:25;;;;;;;20.38;6.47;;;;;;;;;;5035617;28;20055;-62
2021/12/26 02:11:54;;;;;;;26.67;6.75;;;;;;;;;;5035839;28;20029;-62
2021/12/26 02:14:21;;;;;;;23.45;6.78;;;;;;;;;;5035511;28;20041;-62
2021/12/26 02:17:17;;;;;;;28.80;6.97;;;;;;;;;;5032930;28;20025;-62
2021/12/26 02:19:43;;;;;;;27.65;6.93;;;;;;;;;;5015437;28;20032;-62
2021/12/26 02:22:14;;;;;;;26.33;6.13;;;;;;;;;;5015652;28;20397;-62
2021/12/26 02:27:33;;;;;;;26.42;5.85;;;;;;;;;;5015557;28;20090;-62
2021/12/26 02:30:02;;;;;;;17.55;5.60;;;;;;;;;;5030417;28;20029;-62
2021/12/26 02:32:30;;;;;;;26.23;6.47;;;;;;;;;;5034722;28;20064;-62
2021/12/26 02:34:57;;;;;;;23.05;5.53;;;;;;;;;;5034973;28;20029;-62
2021/12/26 02:37:23;;;;;;;24.10;5.50;;;;;;;;;;5052788;28;20041;-62
2021/12/26 02:39:49;;;;;;;23.75;6.32;;;;;;;;;;5035262;28;20029;-62
2021/12/26 02:42:17;;;;;;;20.27;4.95;;;;;;;;;;5034995;28;20032;-62
2021/12/26 02:44:43;;;;;;;17.05;4.70;;;;;;;;;;5034965;28;20029;-62
2021/12/26 02:47:10;;;;;;;28.80;6.15;;;;;;;;;;5034957;28;20025;-62
2021/12/26 02:49:36;;;;;;;30.50;6.72;;;;;;;;;;5034935;28;20071;-62
2021/12/26 02:52:02;;;;;;;25.40;5.15;;;;;;;;;;5035094;28;20031;-62
2021/12/26 02:54:28;;;;;;;24.88;5.80;;;;;;;;;;5034312;28;20032;-62
2021/12/26 02:56:55;;;;;;;21.98;5.03;;;;;;;;;;5034797;28;20025;-62
2021/12/26 02:59:24;;;;;;;18.42;4.88;;;;;;;;;;5034619;28;20584;-62
2021/12/26 03:01:52;;;;;;;16.35;4.97;;;;;;;;;;5034570;28;20480;-62
2021/12/26 03:04:18;;;;;;;18.63;5.07;;;;;;;;;;5034678;28;20083;-62
2021/12/26 03:06:56;;;;;;;18.80;4.20;;;;;;;;;;5052674;28;20017;-62
2021/12/26 03:09:22;;;;;;;14.63;3.88;;;;;;;;;;5034416;28;20396;-62
2021/12/26 03:11:49;;;;;;;24.98;4.50;;;;;;;;;;5052700;28;20033;-62
2021/12/26 03:14:16;;;;;;;12.90;3.15;;;;;;;;;;5052333;28;20044;-62
2021/12/26 03:16:46;;;;;;;23.90;3.88;;;;;;;;;;5034210;28;20021;-62
2021/12/26 03:19:13;;;;;;;19.50;3.10;;;;;;;;;;5052574;28;20037;-62
2021/12/26 03:21:39;;;;;;;20.88;3.58;;;;;;;;;;5034316;28;20389;-62
2021/12/26 03:24:05;;;;;;;16.00;2.75;;;;;;;;;;5034037;28;20031;-62
2021/12/26 03:26:31;;;;;;;16.45;3.03;;;;;;;;;;5052191;28;20029;-62
2021/12/26 03:28:57;;;;;;;13.98;3.00;;;;;;;;;;5034476;28;20503;-62
2021/12/26 03:31:24;;;;;;;25.05;3.63;;;;;;;;;;5034110;28;20031;-62
2021/12/26 03:33:50;;;;;;;22.58;4.47;;;;;;;;;;5034425;28;20033;-62
2021/12/26 03:36:16;;;;;;;22.83;3.28;;;;;;;;;;5051603;28;20462;-62
2021/12/26 03:38:42;;;;;;;20.02;2.78;;;;;;;;;;5052207;28;20124;-62
2021/12/26 03:41:16;;;;;;;28.55;3.28;;;;;;;;;;5034399;28;20554;-62
2021/12/26 03:43:47;;;;;;;18.67;2.83;;;;;;;;;;5034124;28;20082;-62
2021/12/26 03:46:13;;;;;;;22.45;2.83;;;;;;;;;;5033844;28;20029;-62
2021/12/26 03:48:40;;;;;;;26.67;3.03;;;;;;;;;;5034235;28;20021;-62
2021/12/26 03:51:06;;;;;;;21.83;3.08;;;;;;;;;;5034212;28;20500;-62
2021/12/26 03:53:32;;;;;;;25.80;3.03;;;;;;;;;;5033702;28;20060;-62
2021/12/26 03:56:01;;;;;;;19.42;3.78;;;;;;;;;;5033983;28;20017;-62
2021/12/26 03:58:28;;;;;;;33.97;4.93;;;;;;;;;;5034041;28;20021;-62
2021/12/26 04:00:54;;;;;;;24.45;3.40;;;;;;;;;;5033845;28;20053;-62
2021/12/26 04:03:23;;;;;;;23.05;3.72;;;;;;;;;;5034153;28;20021;-62
2021/12/26 04:05:57;;;;;;;23.80;5.07;;;;;;;;;;5034053;28;20086;-62
2021/12/26 04:08:25;;;;;;;33.45;4.70;;;;;;;;;;5033873;28;20124;-62
2021/12/26 04:10:51;;;;;;;32.95;4.28;;;;;;;;;;5033750;28;20021;-62
2021/12/26 04:13:18;;;;;;;32.25;3.97;;;;;;;;;;5049475;28;20064;-62
2021/12/26 04:15:45;;;;;;;28.88;3.83;;;;;;;;;;5053319;28;20032;-62
2021/12/26 04:18:13;;;;;;;24.88;3.63;;;;;;;;;;5053841;28;20041;-62
2021/12/26 04:20:40;;;;;;;25.52;4.38;;;;;;;;;;5053647;28;20392;-62
2021/12/26 04:23:06;;;;;;;34.20;4.70;;;;;;;;;;5045161;28;20029;-62
2021/12/26 04:25:32;;;;;;;28.77;3.47;;;;;;;;;;5033375;28;20033;-62
2021/12/26 04:27:59;;;;;;;25.75;4.25;;;;;;;;;;5043585;28;20176;-62
2021/12/26 04:30:26;;;;;;;28.98;4.32;;;;;;;;;;5039654;28;20029;-62
2021/12/26 04:32:52;;;;;;;26.38;4.15;;;;;;;;;;5058540;28;20124;-62
2021/12/26 04:35:19;;;;;;;35.67;4.45;;;;;;;;;;5036557;28;20037;-62
2021/12/26 04:37:47;;;;;;;37.80;4.43;;;;;;;;;;5039522;28;20286;-62
2021/12/26 04:40:14;;;;;;;37.42;6.88;;;;;;;;;;5067641;28;20111;-62
2021/12/26 04:42:59;;;;;;;27.80;3.28;;;;;;;;;;5055330;28;20086;-62
2021/12/26 04:45:32;;;;;;;28.85;3.95;;;;;;;;;;5035521;28;20112;-62
2021/12/26 04:48:35;;;;;;;44.22;5.75;;;;;;;;;;4973694;28;20039;-62
2021/12/26 04:51:01;;;;;;;38.03;6.03;;;;;;;;;;4957563;28;20496;-62
2021/12/26 04:53:27;;;;;;;28.10;3.55;;;;;;;;;;4957489;28;20185;-62
2021/12/26 04:55:53;;;;;;;37.20;4.50;;;;;;;;;;4973717;28;20053;-62
2021/12/26 04:58:19;;;;;;;27.08;3.80;;;;;;;;;;4970231;28;20058;-62
2021/12/26 05:00:46;;;;;;;27.65;3.22;;;;;;;;;;4968624;28;20038;-62
2021/12/26 05:03:12;;;;;;;27.50;3.30;;;;;;;;;;4964710;28;20475;-62
2021/12/26 05:05:38;;;;;;;26.17;3.35;;;;;;;;;;4983673;28;20070;-62
2021/12/26 05:08:06;;;;;;;34.67;4.32;;;;;;;;;;4973935;28;20486;-62
2021/12/26 05:10:32;;;;;;;35.22;4.07;;;;;;;;;;4973677;28;20034;-62
2021/12/26 05:12:59;;;;;;;41.63;4.13;;;;;;;;;;4988372;28;20059;-62
2021/12/26 05:15:26;;;;;;;30.80;3.70;;;;;;;;;;4973175;28;20423;-62
2021/12/26 05:17:53;;;;;;;21.83;3.40;;;;;;;;;;4957486;28;20475;-62
2021/12/26 05:20:22;;;;;;;26.85;3.10;;;;;;;;;;4957491;28;20027;-62
2021/12/26 05:22:49;;;;;;;26.15;4.50;;;;;;;;;;4994094;28;20048;-62
2021/12/26 05:25:16;;;;;;;29.25;4.53;;;;;;;;;;5034625;28;20519;-62
2021/12/26 05:27:43;;;;;;;27.40;3.72;;;;;;;;;;5043940;28;20025;-62
2021/12/26 05:30:13;;;;;;;29.45;3.55;;;;;;;;;;5036443;28;20045;-62
2021/12/26 05:32:40;;;;;;;44.90;4.35;;;;;;;;;;5036394;28;20607;-62
2021/12/26 05:35:07;;;;;;;30.20;4.30;;;;;;;;;;5036481;28;20031;-62
2021/12/26 05:37:33;;;;;;;23.58;3.63;;;;;;;;;;5019514;28;20072;-62
2021/12/26 05:40:02;;;;;;;23.90;3.63;;;;;;;;;;5036487;28;20116;-62
2021/12/26 05:42:30;;;;;;;31.27;3.67;;;;;;;;;;5035929;28;20107;-62
2021/12/26 05:44:56;;;;;;;22.20;3.20;;;;;;;;;;5036433;28;20025;-62
2021/12/26 05:47:23;;;;;;;29.30;3.10;;;;;;;;;;5035758;28;20040;-62
2021/12/26 05:49:55;;;;;;;29.45;4.40;;;;;;;;;;5036094;28;20385;-62
2021/12/26 05:52:22;;;;;;;23.77;3.30;;;;;;;;;;5036579;28;20029;-62
2021/12/26 05:54:55;;;;;;;14.90;2.85;;;;;;;;;;5039533;28;20029;-62
2021/12/26 05:57:22;;;;;;;21.20;6.53;;;;;;;;;;5044279;28;20033;-62
2021/12/26 05:59:48;;;;;;;19.02;3.30;;;;;;;;;;5047871;28;20053;-62
2021/12/26 06:02:14;;;;;;;77.45;9.35;;;;;;;;;;5041085;28;20032;-62
2021/12/26 06:04:43;;;;;;;61.53;8.80;;;;;;;;;;5042881;28;20021;-62
2021/12/26 06:07:11;;;;;;;17.02;4.20;;;;;;;;;;5043136;28;20032;-62
2021/12/26 06:09:38;;;;;;;41.20;4.65;;;;;;;;;;5054302;28;20021;-62
2021/12/26 06:12:04;;;;;;;86.15;7.60;;;;;;;;;;5040478;28;20515;-62
2021/12/26 06:14:32;;;;;;;40.63;3.22;;;;;;;;;;5045239;28;20025;-61
2021/12/26 06:16:58;;;;;;;47.13;6.35;;;;;;;;;;5040122;28;20125;-62
2021/12/26 06:19:59;;;;;;;18.08;2.85;;;;;;;;;;5070297;28;20388;-62
2021/12/26 06:22:32;;;;;;;53.58;4.25;;;;;;;;;;5045657;28;20029;-62
2021/12/26 06:25:18;;;;;;;19.92;4.35;;;;;;;;;;5052319;28;20045;-62
2021/12/26 06:28:03;;;;;;;42.08;6.13;;;;;;;;;;5060340;28;20110;-62
2021/12/26 06:30:32;;;;;;;19.60;3.65;;;;;;;;;;5067063;28;20043;-62
2021/12/26 06:33:17;;;;;;;19.15;2.83;;;;;;;;;;5064752;28;20026;-62
2021/12/26 06:36:01;;;;;;;15.73;2.88;;;;;;;;;;5070679;28;20098;-61
2021/12/26 06:38:46;;;;;;;61.92;5.35;;;;;;;;;;5067187;28;20047;-62
2021/12/26 06:41:31;;;;;;;26.52;2.63;;;;;;;;;;5058965;28;20554;-62
2021/12/26 06:44:16;;;;;;;19.25;3.97;;;;;;;;;;5054126;28;20078;-62
2021/12/26 06:46:54;;;;;;;28.27;3.15;;;;;;;;;;5045315;28;20032;-62
2021/12/26 06:49:29;;;;;;;18.35;2.85;;;;;;;;;;5035466;28;20084;-62
2021/12/26 06:51:55;;;;;;;18.50;2.75;;;;;;;;;;5034229;28;20056;-62
2021/12/26 06:54:23;;;;;;;18.73;3.08;;;;;;;;;;5051230;28;20029;-62
2021/12/26 06:56:50;;;;;;;14.63;2.88;;;;;;;;;;5050375;28;20029;-66
2021/12/26 06:59:16;;;;;;;17.20;2.72;;;;;;;;;;5040967;28;20119;-68
2021/12/26 07:01:42;;;;;;;10.55;2.70;;;;;;;;;;5042558;28;20029;-71
2021/12/26 07:04:11;;;;;;;24.80;3.03;;;;;;;;;;5031355;28;20033;-71
2021/12/26 07:06:37;;;;;;;18.33;3.63;;;;;;;;;;5014290;28;20496;-70
2021/12/26 07:09:09;;;;;;;18.88;3.00;;;;;;;;;;5031034;28;20445;-68
2021/12/26 07:11:36;;;;;;;16.30;2.85;;;;;;;;;;5023502;28;20025;-70
2021/12/26 07:14:04;;;;;;;17.10;2.90;;;;;;;;;;5021202;28;20036;-67
2021/12/26 07:16:30;;;;;;;12.40;3.10;;;;;;;;;;5026728;28;20028;-67
2021/12/26 07:18:56;;;;;;;16.00;3.65;;;;;;;;;;5035927;28;20028;-67
2021/12/26 07:21:33;;;;;;;15.27;3.20;;;;;;;;;;5041739;28;20102;-68
2021/12/26 07:24:04;;;;;;;16.13;3.80;;;;;;;;;;5029375;28;20028;-69
2021/12/26 07:26:30;;;;;;;13.70;3.42;;;;;;;;;;5037823;28;20025;-67
2021/12/26 07:28:56;;;;;;;62.45;5.65;;;;;;;;;;5024767;28;20052;-67
2021/12/26 07:31:25;;;;;;;32.55;4.18;;;;;;;;;;5035040;28;20034;-66
2021/12/26 07:33:57;;;;;;;18.27;3.50;;;;;;;;;;5033774;28;20464;-65
2021/12/26 07:36:23;;;;;;;19.50;3.72;;;;;;;;;;5037377;28;20048;-66
2021/12/26 07:39:00;;;;;;;15.73;3.60;;;;;;;;;;5029054;28;20116;-66
2021/12/26 07:41:31;;;;;;;16.23;2.63;;;;;;;;;;5039084;28;20066;-66
2021/12/26 07:43:57;;;;;;;14.32;2.90;;;;;;;;;;5034195;28;20025;-68
2021/12/26 07:46:42;;;;;;;33.10;3.15;;;;;;;;;;5045614;28;20045;-67
2021/12/26 07:49:19;;;;;;;17.88;3.35;;;;;;;;;;5033148;28;20053;-64
2021/12/26 07:52:11;;;;;;;21.90;3.17;;;;;;;;;;5047670;28;20075;-64
2021/12/26 07:54:55;;;;;;;8.98;2.75;;;;;;;;;;5048673;28;20044;-64
2021/12/26 07:57:44;;;;;;;21.70;3.42;;;;;;;;;;5046112;28;20405;-64
2021/12/26 08:00:28;;;;;;;16.02;3.90;;;;;;;;;;5049456;28;20068;-64
2021/12/26 08:02:55;;;;;;;17.52;3.00;;;;;;;;;;5052695;28;20028;-64
2021/12/26 08:05:44;;;;;;;16.40;3.05;;;;;;;;;;4997413;28;20121;-64
2021/12/26 08:08:21;;;;;;;14.65;3.05;;;;;;;;;;4978748;28;20038;-63
2021/12/26 08:10:47;;;;;;;16.75;3.13;;;;;;;;;;4980014;28;20100;-64
2021/12/26 08:13:15;;;;;;;19.25;3.58;;;;;;;;;;4979159;28;20026;-64
2021/12/26 08:15:41;;;;;;;26.08;3.50;;;;;;;;;;4985357;28;20037;-63
2021/12/26 08:18:07;;;;;;;22.52;3.38;;;;;;;;;;4998653;28;20060;-64
2021/12/26 08:20:33;;;;;;;12.93;3.55;;;;;;;;;;5000755;28;20507;-64
2021/12/26 08:23:01;;;;;;;24.27;4.25;;;;;;;;;;4998367;28;20060;-64
2021/12/26 08:25:27;;;;;;;17.30;3.88;;;;;;;;;;4998505;28;20038;-65
2021/12/26 08:27:53;;;;;;;26.67;5.00;;;;;;;;;;4998734;28;20470;-63
2021/12/26 08:30:20;;;;;;;22.52;4.28;;;;;;;;;;4998709;28;20045;-64
2021/12/26 08:32:51;;;;;;;31.67;5.20;;;;;;;;;;5000170;28;20025;-64
2021/12/26 08:35:17;;;;;;;18.92;4.95;;;;;;;;;;4980884;28;20030;-64
2021/12/26 08:37:46;;;;;;;26.42;4.72;;;;;;;;;;4998498;28;20449;-63
2021/12/26 08:40:13;;;;;;;29.75;6.55;;;;;;;;;;4996624;28;20052;-64
2021/12/26 08:42:39;;;;;;;23.80;5.07;;;;;;;;;;5019022;28;20379;-64
2021/12/26 08:45:05;;;;;;;26.77;4.97;;;;;;;;;;5052019;28;20116;-64
2021/12/26 08:47:31;;;;;;;19.27;5.40;;;;;;;;;;5052782;28;20043;-64
2021/12/26 08:49:57;;;;;;;29.35;9.13;;;;;;;;;;5040739;28;20485;-64
2021/12/26 08:52:23;;;;;;;56.47;16.20;;;;;;;;;;5052140;28;20035;-64
2021/12/26 08:54:50;;;;;;;55.80;13.95;;;;;;;;;;5053107;28;20052;-64
2021/12/26 08:57:16;;;;;;;31.02;8.10;;;;;;;;;;5053127;28;20029;-64
2021/12/26 08:59:43;;;;;;;26.70;6.45;;;;;;;;;;5052954;28;20025;-64
2021/12/26 09:02:09;;;;;;;24.48;6.82;;;;;;;;;;5053127;28;20032;-64
2021/12/26 09:04:36;;;;;;;19.38;5.60;;;;;;;;;;5053610;28;20396;-64
2021/12/26 09:07:02;;;;;;;27.67;7.30;;;;;;;;;;5053066;28;20021;-65
2021/12/26 09:09:29;;;;;;;24.80;5.40;;;;;;;;;;5040490;28;20455;-64
2021/12/26 09:11:55;;;;;;;24.50;5.78;;;;;;;;;;5053734;28;20082;-65
2021/12/26 09:14:22;;;;;;;16.58;7.85;;;;;;;;;;5055041;28;20546;-64
2021/12/26 09:16:48;;;;;;;32.42;9.02;;;;;;;;;;5051992;28;20052;-65
2021/12/26 09:19:14;;;;;;;20.73;6.75;;;;;;;;;;5052424;28;20067;-65
2021/12/26 09:21:40;;;;;;;24.80;7.50;;;;;;;;;;5052127;28;20020;-64
2021/12/26 09:24:06;;;;;;;23.23;7.07;;;;;;;;;;5042615;28;20017;-64
2021/12/26 09:26:33;;;;;;;17.50;6.47;;;;;;;;;;5051884;28;20412;-64
2021/12/26 09:28:59;;;;;;;22.73;6.00;;;;;;;;;;5052682;28;20044;-64
2021/12/26 09:31:26;;;;;;;23.00;6.78;;;;;;;;;;5053360;28;20029;-64
2021/12/26 09:33:52;;;;;;;27.08;7.68;;;;;;;;;;5053432;28;20036;-64
2021/12/26 09:36:18;;;;;;;27.20;7.45;;;;;;;;;;5053147;28;20053;-64
2021/12/26 09:38:44;;;;;;;21.92;8.30;;;;;;;;;;5054393;28;20178;-64
2021/12/26 09:41:11;;;;;;;23.10;5.75;;;;;;;;;;5052512;28;20025;-65
2021/12/26 09:43:38;;;;;;;18.23;4.75;;;;;;;;;;5053421;28;20048;-65
2021/12/26 09:46:04;;;;;;;16.35;4.47;;;;;;;;;;5053047;28;20037;-65
2021/12/26 09:48:30;;;;;;;13.68;4.80;;;;;;;;;;5052068;28;20025;-65
2021/12/26 09:50:56;;;;;;;20.92;3.60;;;;;;;;;;5041084;28;20023;-64
2021/12/26 09:53:23;;;;;;;13.80;3.88;;;;;;;;;;5052318;28;20480;-64
2021/12/26 09:55:50;;;;;;;19.30;3.35;;;;;;;;;;5052068;28;20029;-65
2021/12/26 09:58:16;;;;;;;21.08;4.07;;;;;;;;;;5050591;28;20043;-64
2021/12/26 10:00:45;;;;;;;18.17;4.10;;;;;;;;;;5053320;28;20021;-65
2021/12/26 10:03:17;;;;;;;21.65;3.30;;;;;;;;;;5053344;28;20485;-64
2021/12/26 10:06:02;;;;;;;12.20;2.88;;;;;;;;;;5051412;28;20025;-65
2021/12/26 10:08:30;;;;;;;16.90;2.63;;;;;;;;;;5050585;28;20021;-65
2021/12/26 10:11:16;;;;;;;9.80;2.40;;;;;;;;;;5040570;28;20024;-65
2021/12/26 10:13:50;;;;;;;14.45;2.50;;;;;;;;;;5052422;28;20041;-65
2021/12/26 10:16:17;;;;;;;20.58;2.75;;;;;;;;;;5052561;28;20519;-64
2021/12/26 10:18:44;;;;;;;13.82;2.83;;;;;;;;;;5053070;28;20024;-65
2021/12/26 10:21:27;;;;;;;22.88;2.97;;;;;;;;;;5041581;28;20408;-65
2021/12/26 10:23:54;;;;;;;8.15;2.28;;;;;;;;;;5050384;28;20078;-65
2021/12/26 10:26:21;;;;;;;15.68;3.00;;;;;;;;;;5049880;28;20032;-65
2021/12/26 10:29:05;;;;;;;13.10;2.80;;;;;;;;;;5051976;28;20029;-65
2021/12/26 10:31:31;;;;;;;23.10;2.83;;;;;;;;;;5051570;28;20029;-65
2021/12/26 10:33:57;;;;;;;17.55;3.53;;;;;;;;;;5050497;28;20017;-65
2021/12/26 10:36:24;;;;;;;10.10;3.00;;;;;;;;;;5052204;28;20501;-65
2021/12/26 10:39:12;;;;;;;17.85;3.35;;;;;;;;;;5041340;28;20040;-64
2021/12/26 10:41:49;;;;;;;13.85;3.78;;;;;;;;;;5035491;28;20022;-65
2021/12/26 10:44:29;;;;;;;12.55;2.55;;;;;;;;;;5051843;28;20021;-64
2021/12/26 10:46:59;;;;;;;14.82;3.08;;;;;;;;;;5051179;28;20048;-64
2021/12/26 10:49:27;;;;;;;16.77;2.85;;;;;;;;;;5038257;28;20041;-64
2021/12/26 10:51:54;;;;;;;12.65;2.85;;;;;;;;;;5053747;28;20392;-65
2021/12/26 10:54:25;;;;;;;22.67;2.88;;;;;;;;;;5051489;28;20024;-65
2021/12/26 10:57:03;;;;;;;12.68;2.55;;;;;;;;;;5053852;28;20496;-68
2021/12/26 10:59:30;;;;;;;13.45;2.65;;;;;;;;;;5042826;28;20361;-77
2021/12/26 11:01:56;;;;;;;24.08;3.00;;;;;;;;;;5042106;28;20553;-73
2021/12/26 11:04:26;;;;;;;12.95;2.75;;;;;;;;;;5031105;28;20031;-75
2021/12/26 11:06:59;;;;;;;19.60;3.47;;;;;;;;;;5055004;28;20025;-76
2021/12/26 11:09:25;;;;;;;13.23;4.55;;;;;;;;;;5039851;28;20129;-74
2021/12/26 11:12:08;;;;;;;17.45;4.72;;;;;;;;;;5037136;28;20022;-72
2021/12/26 11:14:54;;;;;;;10.55;3.30;;;;;;;;;;5048372;28;20267;-75
2021/12/26 11:17:31;;;;;;;14.50;2.63;;;;;;;;;;5042037;28;20068;-78
2021/12/26 11:19:57;;;;;;;15.57;2.40;;;;;;;;;;5054299;28;20489;-71
2021/12/26 11:22:24;;;;;;;13.60;2.97;;;;;;;;;;5045366;28;20440;-65
2021/12/26 11:24:50;;;;;;;16.60;3.53;;;;;;;;;;5050658;28;20017;-68
2021/12/26 11:27:17;;;;;;;15.98;2.63;;;;;;;;;;5040736;28;20440;-71
2021/12/26 11:29:43;;;;;;;14.10;3.10;;;;;;;;;;5050058;28;20056;-72
2021/12/26 11:32:09;;;;;;;11.98;2.88;;;;;;;;;;5050675;28;20036;-69
2021/12/26 11:34:37;;;;;;;12.82;3.55;;;;;;;;;;5053472;28;20059;-71
2021/12/26 11:37:03;;;;;;;15.60;3.50;;;;;;;;;;5027788;28;20075;-69
2021/12/26 11:39:52;;;;;;;12.00;3.58;;;;;;;;;;5025939;28;20120;-75
2021/12/26 11:42:40;;;;;;;12.73;2.97;;;;;;;;;;5025920;28;20524;-70
2021/12/26 11:45:37;;;;;;;15.23;3.47;;;;;;;;;;5027909;28;20035;-71
2021/12/26 11:48:43;;;;;;;20.40;3.17;;;;;;;;;;5029696;28;20083;-68
2021/12/26 11:51:48;;;;;;;12.93;2.92;;;;;;;;;;5019076;28;20045;-66
2021/12/26 11:54:39;;;;;;;16.70;3.38;;;;;;;;;;4969737;28;20062;-66
2021/12/26 11:57:13;;;;;;;15.43;3.25;;;;;;;;;;4951855;28;20069;-65
2021/12/26 11:59:47;;;;;;;14.82;2.83;;;;;;;;;;4966170;28;20171;-65
2021/12/26 12:02:14;;;;;;;11.65;2.70;;;;;;;;;;4967618;28;20400;-66
2021/12/26 12:04:40;;;;;;;12.57;2.58;;;;;;;;;;4974021;28;20094;-65
2021/12/26 12:07:09;;;;;;;13.15;3.17;;;;;;;;;;4967833;28;20093;-66
2021/12/26 12:09:39;;;;;;;12.65;2.85;;;;;;;;;;4967553;28;20034;-66
2021/12/26 12:12:06;;;;;;;17.88;4.18;;;;;;;;;;4969104;28;20226;-65
2021/12/26 12:14:52;;;;;;;17.65;5.35;;;;;;;;;;4969437;28;20031;-66
2021/12/26 12:17:26;;;;;;;17.58;3.45;;;;;;;;;;4968503;28;21129;-66
2021/12/26 12:20:10;;;;;;;14.15;3.20;;;;;;;;;;4966429;28;20062;-66
2021/12/26 12:22:37;;;;;;;13.90;4.07;;;;;;;;;;4967243;28;20027;-66
2021/12/26 12:25:22;;;;;;;12.43;3.25;;;;;;;;;;4967764;28;20114;-66
2021/12/26 12:28:06;;;;;;;12.90;2.55;;;;;;;;;;4967810;28;20073;-66
2021/12/26 12:30:32;;;;;;;15.00;2.63;;;;;;;;;;4976761;28;20479;-66
2021/12/26 12:33:18;;;;;;;12.50;2.25;;;;;;;;;;5027993;28;20052;-65
2021/12/26 12:35:49;;;;;;;11.38;1.90;;;;;;;;;;5019631;28;20041;-65
2021/12/26 12:38:26;;;;;;;9.27;2.17;;;;;;;;;;5022526;28;20069;-66
2021/12/26 12:40:52;;;;;;;7.63;1.50;;;;;;;;;;5028618;28;20045;-66
2021/12/26 12:43:22;;;;;;;7.95;1.90;;;;;;;;;;5025197;28;20045;-66
2021/12/26 12:45:56;;;;;;;13.38;2.08;;;;;;;;;;5026028;28;20033;-66
2021/12/26 12:48:25;;;;;;;9.55;1.70;;;;;;;;;;5025471;28;20087;-66
2021/12/26 12:50:51;;;;;;;9.45;1.63;;;;;;;;;;5024818;28;20032;-66
2021/12/26 12:53:36;;;;;;;8.00;1.80;;;;;;;;;;5026888;28;20037;-66
2021/12/26 12:56:03;;;;;;;7.22;1.88;;;;;;;;;;5024097;28;20091;-66
2021/12/26 12:58:32;;;;;;;14.45;1.85;;;;;;;;;;5023781;28;20489;-66
2021/12/26 13:01:00;;;;;;;7.80;1.20;;;;;;;;;;5018602;28;20021;-66
2021/12/26 13:03:28;;;;;;;5.47;1.38;;;;;;;;;;5027919;28;20485;-66
2021/12/26 13:05:55;;;;;;;12.70;1.40;;;;;;;;;;5029501;28;20022;-66
2021/12/26 13:08:22;;;;;;;13.80;1.48;;;;;;;;;;5024393;28;20025;-66
2021/12/26 13:10:54;;;;;;;11.00;1.95;;;;;;;;;;5028297;28;20036;-66
2021/12/26 13:13:21;;;;;;;9.15;3.03;;;;;;;;;;5022717;28;20493;-65
2021/12/26 13:15:55;;;;;;;5.57;1.55;;;;;;;;;;5031491;28;20025;-66
2021/12/26 13:18:22;;;;;;;10.73;1.30;;;;;;;;;;5033251;28;20026;-65
2021/12/26 13:20:49;;;;;;;12.75;1.35;;;;;;;;;;5027742;28;20229;-65
2021/12/26 13:23:16;;;;;;;9.77;1.45;;;;;;;;;;5028886;28;20025;-65
2021/12/26 13:25:45;;;;;;;8.68;2.28;;;;;;;;;;5027619;28;20025;-65
2021/12/26 13:28:11;;;;;;;7.93;1.70;;;;;;;;;;5031462;28;20029;-65
2021/12/26 13:30:42;;;;;;;11.40;1.63;;;;;;;;;;5036194;28;20033;-65
2021/12/26 13:33:15;;;;;;;7.22;1.67;;;;;;;;;;5043248;28;20045;-65
2021/12/26 13:35:41;;;;;;;5.50;1.13;;;;;;;;;;5040676;28;20083;-67
2021/12/26 13:38:07;;;;;;;3.85;1.05;;;;;;;;;;5047343;28;20079;-65
2021/12/26 13:40:36;;;;;;;4.90;1.60;;;;;;;;;;5048031;28;20139;-65
2021/12/26 13:43:03;;;;;;;6.60;2.22;;;;;;;;;;5046887;28;20029;-65
2021/12/26 13:45:30;;;;;;;5.43;1.50;;;;;;;;;;5050600;28;20510;-65
2021/12/26 13:47:56;;;;;;;7.05;1.80;;;;;;;;;;5041576;28;20173;-65
2021/12/26 13:50:22;;;;;;;7.60;1.75;;;;;;;;;;5050727;28;20025;-66
2021/12/26 13:52:59;;;;;;;7.28;2.22;;;;;;;;;;5053671;28;20112;-65
2021/12/26 13:55:25;;;;;;;7.90;1.70;;;;;;;;;;5055760;28;20500;-66
2021/12/26 13:58:01;;;;;;;7.15;1.52;;;;;;;;;;5050182;28;20044;-65
2021/12/26 14:00:27;;;;;;;8.88;1.83;;;;;;;;;;5059988;28;20072;-66
2021/12/26 14:02:53;;;;;;;6.63;2.25;;;;;;;;;;5046035;28;20108;-66
2021/12/26 14:05:21;;;;;;;8.82;1.73;;;;;;;;;;5052425;28;20496;-66
2021/12/26 14:07:58;;;;;;;6.40;1.50;;;;;;;;;;5049605;28;20217;-67
2021/12/26 14:10:25;;;;;;;7.90;2.20;;;;;;;;;;5045299;28;20024;-67
2021/12/26 14:12:58;;;;;;;8.50;1.60;;;;;;;;;;5048348;28;20035;-74
2021/12/26 14:15:30;;;;;;;5.55;2.15;;;;;;;;;;5057005;28;20040;-72
2021/12/26 14:18:01;;;;;;;8.18;1.80;;;;;;;;;;5038471;28;20044;-75
2021/12/26 14:20:29;;;;;;;11.73;1.70;;;;;;;;;;5022064;28;20025;-65
2021/12/26 14:22:57;;;;;;;4.60;1.13;;;;;;;;;;5034082;28;20413;-73
2021/12/26 14:25:23;;;;;;;8.07;1.10;;;;;;;;;;5038662;28;20079;-69
2021/12/26 14:27:49;;;;;;;4.20;1.02;;;;;;;;;;5047961;28;20029;-73
2021/12/26 14:30:16;;;;;;;5.03;1.30;;;;;;;;;;5025947;28;20478;-70
2021/12/26 14:32:56;;;;;;;4.25;1.13;;;;;;;;;;5050553;28;20060;-71
2021/12/26 14:35:23;;;;;;;7.43;1.10;;;;;;;;;;5050518;28;20405;-71
2021/12/26 14:37:49;;;;;;;3.50;1.08;;;;;;;;;;5040867;28;20076;-67
2021/12/26 14:40:15;;;;;;;5.40;2.13;;;;;;;;;;5044763;28;20021;-72
2021/12/26 14:42:43;;;;;;;7.20;1.10;;;;;;;;;;5038077;28;20397;-73
2021/12/26 14:45:14;;;;;;;7.05;1.30;;;;;;;;;;5042316;28;20374;-69
2021/12/26 14:47:42;;;;;;;8.27;1.85;;;;;;;;;;5046132;28;20115;-68
2021/12/26 14:50:09;;;;;;;11.77;1.33;;;;;;;;;;5050271;28;20029;-70
2021/12/26 14:52:47;;;;;;;6.75;1.23;;;;;;;;;;5030008;28;20394;-69
2021/12/26 14:55:23;;;;;;;11.75;1.60;;;;;;;;;;5047939;28;20079;-69